createdAt,value
2018-11-13T00:00:39.091Z,16.87
2018-11-13T00:03:06.696Z,15.60
2018-11-13T00:05:34.243Z,16.50
2018-11-13T00:08:01.879Z,14.98
2018-11-13T00:10:29.468Z,16.40
2018-11-13T00:12:57.029Z,15.03
2018-11-13T00:15:24.675Z,15.65
2018-11-13T00:17:52.271Z,16.87
2018-11-13T00:20:19.909Z,15.15
2018-11-13T00:22:47.594Z,16.30
2018-11-13T00:25:16.416Z,14.98
2018-11-13T00:27:44.217Z,15.32
2018-11-13T00:32:47.318Z,16.10
2018-11-13T00:35:15.678Z,14.95
2018-11-13T00:37:46.210Z,15.78
2018-11-13T00:40:14.428Z,15.83
2018-11-13T00:42:45.588Z,15.88
2018-11-13T00:45:13.222Z,16.20
2018-11-13T00:47:42.052Z,15.40
2018-11-13T00:50:17.335Z,15.72
2018-11-13T00:52:46.061Z,16.05
2018-11-13T00:55:14.048Z,16.15
2018-11-13T00:57:42.644Z,14.80
2018-11-13T01:00:13.009Z,14.65
2018-11-13T01:02:40.648Z,14.78
2018-11-13T01:05:10.208Z,14.45
2018-11-13T01:07:37.732Z,14.90
2018-11-13T01:10:09.236Z,14.93
2018-11-13T01:12:36.795Z,14.58
2018-11-13T01:15:04.923Z,15.80
2018-11-13T01:17:32.699Z,15.28
2018-11-13T01:20:00.010Z,14.83
2018-11-13T01:22:27.531Z,14.70
2018-11-13T01:24:55.226Z,16.35
2018-11-13T01:27:22.750Z,15.32
2018-11-13T01:29:56.771Z,16.25
2018-11-13T01:32:25.719Z,17.17
2018-11-13T01:34:53.402Z,16.17
2018-11-13T01:37:22.614Z,14.80
2018-11-13T01:39:50.247Z,15.23
2018-11-13T01:42:17.766Z,15.00
2018-11-13T01:44:45.283Z,15.23
2018-11-13T01:47:13.081Z,15.25
2018-11-13T01:49:40.877Z,15.35
2018-11-13T01:52:08.233Z,16.27
2018-11-13T01:54:36.051Z,15.85
2018-11-13T01:57:04.065Z,15.63
2018-11-13T01:59:32.021Z,16.93
2018-11-13T02:01:59.727Z,15.85
2018-11-13T02:04:27.429Z,14.63
2018-11-13T02:06:55.973Z,16.10
2018-11-13T02:09:23.585Z,16.50
2018-11-13T02:11:51.233Z,14.75
2018-11-13T02:14:18.835Z,15.43
2018-11-13T02:16:46.479Z,16.40
2018-11-13T02:19:14.126Z,16.50
2018-11-13T02:21:41.907Z,15.83
2018-11-13T02:24:10.002Z,15.80
2018-11-13T02:26:37.583Z,17.25
2018-11-13T02:29:08.283Z,15.20
2018-11-13T02:31:36.048Z,17.17
2018-11-13T02:34:03.712Z,16.10
2018-11-13T02:36:31.409Z,16.42
2018-11-13T02:38:59.039Z,17.32
2018-11-13T02:41:26.718Z,15.18
2018-11-13T02:43:54.440Z,16.25
2018-11-13T02:46:22.102Z,16.80
2018-11-13T02:48:51.036Z,16.37
2018-11-13T02:51:18.638Z,16.60
2018-11-13T02:53:46.437Z,16.82
2018-11-13T02:56:14.102Z,15.98
2018-11-13T02:58:41.678Z,16.00
2018-11-13T03:01:09.396Z,16.97
2018-11-13T03:03:36.963Z,17.20
2018-11-13T03:06:04.819Z,16.93
2018-11-13T03:08:32.732Z,16.80
2018-11-13T03:11:00.694Z,17.92
2018-11-13T03:13:28.314Z,17.27
2018-11-13T03:15:55.911Z,18.50
2018-11-13T03:18:23.463Z,17.50
2018-11-13T03:20:51.055Z,19.05
2018-11-13T03:23:18.636Z,18.42
2018-11-13T03:25:46.227Z,18.20
2018-11-13T03:28:13.811Z,17.62
2018-11-13T03:30:41.399Z,17.77
2018-11-13T03:33:08.963Z,18.00
2018-11-13T03:35:37.036Z,21.00
2018-11-13T03:38:04.623Z,17.75
2018-11-13T03:40:32.428Z,20.65
2018-11-13T03:43:00.047Z,19.37
2018-11-13T03:45:27.587Z,20.08
2018-11-13T03:47:55.414Z,19.30
2018-11-13T03:50:23.012Z,19.30
2018-11-13T03:52:50.630Z,19.05
2018-11-13T03:55:18.831Z,17.60
2018-11-13T03:57:47.055Z,19.00
2018-11-13T04:00:16.784Z,17.57
2018-11-13T04:02:44.333Z,18.95
2018-11-13T04:05:13.105Z,16.20
2018-11-13T04:07:43.041Z,17.30
2018-11-13T04:10:12.012Z,17.27
2018-11-13T04:12:39.989Z,17.37
2018-11-13T04:15:08.599Z,15.58
2018-11-13T04:17:36.119Z,15.85
2018-11-13T04:20:04.798Z,15.35
2018-11-13T04:22:33.053Z,15.28
2018-11-13T04:25:00.560Z,13.60
2018-11-13T04:27:28.090Z,14.10
2018-11-13T04:29:55.677Z,13.40
2018-11-13T04:32:23.272Z,13.68
2018-11-13T04:34:50.940Z,12.10
2018-11-13T04:37:18.492Z,11.28
2018-11-13T04:39:46.035Z,10.53
2018-11-13T04:42:13.743Z,11.68
2018-11-13T04:44:41.282Z,11.90
2018-11-13T04:47:08.872Z,11.28
2018-11-13T04:49:36.627Z,9.78
2018-11-13T04:52:04.554Z,9.90
2018-11-13T04:54:32.515Z,8.93
2018-11-13T04:57:00.007Z,9.48
2018-11-13T04:59:27.540Z,8.33
2018-11-13T05:01:55.207Z,9.18
2018-11-13T05:04:54.308Z,8.68
2018-11-13T05:07:28.393Z,8.43
2018-11-13T05:09:55.772Z,7.75
2018-11-13T05:12:23.076Z,8.38
2018-11-13T05:14:50.407Z,8.13
2018-11-13T05:17:17.782Z,8.20
2018-11-13T05:19:45.175Z,7.30
2018-11-13T05:22:12.584Z,7.33
2018-11-13T05:24:39.932Z,7.87
2018-11-13T05:27:07.256Z,7.53
2018-11-13T05:29:34.597Z,7.55
2018-11-13T05:32:02.288Z,6.78
2018-11-13T05:34:29.587Z,6.53
2018-11-13T05:36:57.060Z,6.40
2018-11-13T05:39:24.391Z,5.83
2018-11-13T05:41:51.778Z,6.33
2018-11-13T05:44:19.008Z,5.60
2018-11-13T05:46:46.323Z,5.60
2018-11-13T05:49:13.789Z,6.53
2018-11-13T05:51:41.227Z,5.53
2018-11-13T05:54:08.668Z,6.00
2018-11-13T05:56:36.027Z,6.30
2018-11-13T05:59:03.626Z,5.85
2018-11-13T06:01:31.030Z,6.15
2018-11-13T06:03:58.416Z,5.42
2018-11-13T06:06:25.995Z,5.87
2018-11-13T06:08:53.541Z,5.33
2018-11-13T06:11:20.995Z,5.55
2018-11-13T06:13:48.426Z,4.90
2018-11-13T06:16:15.994Z,4.80
2018-11-13T06:18:43.367Z,5.10
2018-11-13T06:21:10.855Z,5.15
2018-11-13T06:23:38.238Z,4.97
2018-11-13T06:26:05.604Z,4.53
2018-11-13T06:28:33.002Z,4.30
2018-11-13T06:31:00.451Z,4.92
2018-11-13T06:33:27.920Z,4.90
2018-11-13T06:35:55.583Z,4.35
2018-11-13T06:38:22.963Z,4.92
2018-11-13T06:40:50.395Z,4.40
2018-11-13T06:43:17.787Z,5.45
2018-11-13T06:45:45.174Z,5.00
2018-11-13T06:48:14.145Z,4.67
2018-11-13T06:50:41.771Z,4.25
2018-11-13T06:53:09.083Z,4.65
2018-11-13T06:55:38.307Z,4.50
2018-11-13T06:58:05.855Z,4.47
2018-11-13T07:00:33.163Z,4.65
2018-11-13T07:03:00.492Z,5.40
2018-11-13T07:05:27.838Z,4.58
2018-11-13T07:07:56.347Z,4.78
2018-11-13T07:10:24.838Z,4.62
2018-11-13T07:12:52.888Z,4.53
2018-11-13T07:15:21.388Z,4.33
2018-11-13T07:17:49.966Z,4.83
2018-11-13T07:20:19.142Z,4.40
2018-11-13T07:22:46.530Z,4.33
2018-11-13T07:25:14.105Z,4.25
2018-11-13T07:27:42.152Z,4.20
2018-11-13T07:30:10.745Z,4.45
2018-11-13T07:32:38.703Z,3.90
2018-11-13T07:35:06.630Z,4.15
2018-11-13T07:37:33.994Z,3.98
2018-11-13T07:40:01.344Z,4.17
2018-11-13T07:42:28.738Z,3.50
2018-11-13T07:44:56.071Z,3.10
2018-11-13T07:47:23.540Z,3.30
2018-11-13T07:49:50.796Z,3.10
2018-11-13T07:52:18.175Z,3.40
2018-11-13T07:54:45.575Z,3.05
2018-11-13T07:57:12.872Z,2.92
2018-11-13T07:59:40.196Z,3.12
2018-11-13T08:02:07.555Z,2.70
2018-11-13T08:04:35.327Z,2.87
2018-11-13T08:07:03.121Z,2.80
2018-11-13T08:09:30.520Z,3.17
2018-11-13T08:11:57.967Z,3.20
2018-11-13T08:14:25.568Z,2.80
2018-11-13T08:16:52.905Z,3.45
2018-11-13T08:19:20.243Z,3.90
2018-11-13T08:21:47.622Z,3.67
2018-11-13T08:24:15.030Z,3.67
2018-11-13T08:26:42.387Z,2.80
2018-11-13T08:29:09.733Z,3.80
2018-11-13T08:31:37.032Z,3.98
2018-11-13T08:34:04.702Z,3.20
2018-11-13T08:36:32.275Z,3.60
2018-11-13T08:38:59.599Z,3.27
2018-11-13T08:41:27.032Z,3.42
2018-11-13T08:43:54.688Z,3.67
2018-11-13T08:46:22.064Z,3.40
2018-11-13T08:48:49.423Z,3.50
2018-11-13T08:51:16.823Z,3.55
2018-11-13T08:53:44.220Z,3.80
2018-11-13T08:56:11.630Z,3.47
2018-11-13T08:58:39.264Z,3.30
2018-11-13T09:01:06.603Z,3.35
2018-11-13T09:03:33.966Z,3.52
2018-11-13T09:06:01.362Z,3.37
2018-11-13T09:08:30.822Z,3.20
2018-11-13T09:10:58.389Z,3.70
2018-11-13T09:13:30.627Z,3.00
2018-11-13T09:15:58.014Z,3.90
2018-11-13T09:18:25.415Z,3.45
2018-11-13T09:20:52.908Z,3.43
2018-11-13T09:23:20.749Z,3.50
2018-11-13T09:25:48.183Z,3.35
2018-11-13T09:28:15.890Z,3.45
2018-11-13T09:30:43.541Z,3.33
2018-11-13T09:33:10.689Z,8.03
2018-11-13T09:35:38.082Z,2.85
2018-11-13T09:38:05.479Z,3.40
2018-11-13T09:40:32.887Z,2.95
2018-11-13T09:43:00.274Z,3.10
2018-11-13T09:45:27.668Z,2.53
2018-11-13T09:47:55.280Z,2.58
2018-11-13T09:50:24.852Z,2.47
2018-11-13T09:52:52.566Z,3.05
2018-11-13T09:55:21.080Z,2.60
2018-11-13T09:57:48.483Z,2.70
2018-11-13T10:00:24.650Z,2.80
2018-11-13T10:02:53.855Z,2.90
2018-11-13T10:05:21.180Z,2.47
2018-11-13T10:07:49.007Z,2.47
2018-11-13T10:10:16.497Z,3.00
2018-11-13T10:12:44.432Z,2.60
2018-11-13T10:15:14.028Z,2.95
2018-11-13T10:17:41.487Z,2.58
2018-11-13T10:20:09.867Z,2.70
2018-11-13T10:22:37.167Z,2.53
2018-11-13T10:25:05.588Z,2.55
2018-11-13T10:27:33.886Z,2.47
2018-11-13T10:30:01.355Z,2.37
2018-11-13T10:32:28.529Z,2.50
2018-11-13T10:34:55.796Z,2.60
2018-11-13T10:37:26.674Z,2.50
2018-11-13T10:39:53.973Z,2.10
2018-11-13T10:42:21.300Z,2.20
2018-11-13T10:44:48.603Z,2.20
2018-11-13T10:47:15.975Z,3.12
2018-11-13T10:49:47.584Z,2.70
2018-11-13T10:52:14.972Z,2.47
2018-11-13T10:54:42.392Z,2.77
2018-11-13T10:57:09.789Z,1.70
2018-11-13T10:59:37.283Z,2.00
2018-11-13T11:04:12.670Z,1.92
2018-11-13T11:06:40.275Z,2.00
2018-11-13T11:09:08.620Z,2.03
2018-11-13T11:11:39.967Z,2.20
2018-11-13T11:14:07.548Z,2.07
2018-11-13T11:16:35.295Z,2.20
2018-11-13T11:19:02.909Z,1.97
2018-11-13T11:21:30.472Z,1.73
2018-11-13T11:23:58.129Z,1.70
2018-11-13T11:26:28.184Z,2.13
2018-11-13T11:28:55.749Z,1.50
2018-11-13T11:31:23.340Z,1.92
2018-11-13T11:33:50.919Z,1.80
2018-11-13T11:36:18.463Z,1.93
2018-11-13T11:38:46.182Z,1.77
2018-11-13T11:41:18.943Z,1.60
2018-11-13T11:43:46.326Z,1.60
2018-11-13T11:46:13.691Z,2.10
2018-11-13T11:48:41.239Z,2.10
2018-11-13T11:51:08.639Z,1.67
2018-11-13T11:53:35.972Z,1.73
2018-11-13T11:56:03.571Z,2.30
2018-11-13T11:58:30.855Z,1.53
2018-11-13T12:00:58.204Z,2.27
2018-11-13T12:03:25.503Z,1.87
2018-11-13T12:05:52.810Z,1.93
2018-11-13T12:08:20.098Z,1.90
2018-11-13T12:10:47.387Z,1.53
2018-11-13T12:13:14.694Z,2.10
2018-11-13T12:15:42.085Z,1.40
2018-11-13T12:18:09.474Z,1.70
2018-11-13T12:20:36.836Z,1.67
2018-11-13T12:23:04.541Z,1.93
2018-11-13T12:25:32.342Z,1.60
2018-11-13T12:27:59.697Z,1.57
2018-11-13T12:30:27.166Z,1.80
2018-11-13T12:32:54.474Z,1.87
2018-11-13T12:35:23.314Z,1.60
2018-11-13T12:37:50.623Z,1.73
2018-11-13T12:40:20.219Z,1.50
2018-11-13T12:42:48.189Z,1.50
2018-11-13T12:45:15.560Z,1.50
2018-11-13T12:47:43.314Z,1.70
2018-11-13T12:50:11.690Z,2.47
2018-11-13T12:52:39.108Z,1.90
2018-11-13T12:55:11.147Z,1.80
2018-11-13T12:57:38.508Z,2.10
2018-11-13T13:00:12.850Z,1.50
2018-11-13T13:02:40.231Z,1.53
2018-11-13T13:05:09.103Z,1.63
2018-11-13T13:07:37.263Z,1.53
2018-11-13T13:10:07.787Z,1.30
2018-11-13T13:12:35.283Z,1.60
2018-11-13T13:15:02.809Z,2.10
2018-11-13T13:17:30.121Z,1.63
2018-11-13T13:19:58.932Z,1.50
2018-11-13T13:22:26.375Z,1.50
2018-11-13T13:24:53.780Z,1.60
2018-11-13T13:27:21.258Z,1.50
2018-11-13T13:29:48.626Z,1.83
2018-11-13T13:32:16.018Z,1.80
2018-11-13T13:34:43.413Z,1.50
2018-11-13T13:37:10.854Z,1.60
2018-11-13T13:39:38.263Z,1.60
2018-11-13T13:42:06.631Z,1.80
2018-11-13T13:44:33.975Z,1.60
2018-11-13T13:47:01.329Z,1.50
2018-11-13T13:49:28.723Z,1.77
2018-11-13T13:51:56.113Z,1.60
2018-11-13T13:54:23.545Z,1.70
2018-11-13T13:56:50.863Z,1.33
2018-11-13T13:59:18.264Z,2.08
2018-11-13T14:01:45.668Z,2.10
2018-11-13T14:04:13.043Z,1.70
2018-11-13T14:06:40.846Z,2.20
2018-11-13T14:09:09.160Z,1.90
2018-11-13T14:11:39.044Z,2.20
2018-11-13T14:14:06.680Z,1.80
2018-11-13T14:16:34.085Z,1.30
2018-11-13T14:19:02.133Z,1.37
2018-11-13T14:21:29.507Z,1.60
2018-11-13T14:23:56.907Z,1.80
2018-11-13T14:26:24.284Z,1.40
2018-11-13T14:28:51.977Z,1.83
2018-11-13T14:31:19.274Z,1.43
2018-11-13T14:33:46.683Z,1.73
2018-11-13T14:36:14.143Z,1.70
2018-11-13T14:38:42.767Z,1.80
2018-11-13T14:41:10.168Z,1.90
2018-11-13T14:43:37.567Z,1.87
2018-11-13T14:46:05.496Z,1.50
2018-11-13T14:48:36.606Z,2.07
2018-11-13T14:51:04.513Z,1.73
2018-11-13T14:53:32.691Z,1.60
2018-11-13T14:56:00.028Z,1.63
2018-11-13T14:58:27.442Z,1.62
2018-11-13T15:00:55.992Z,1.67
2018-11-13T15:03:23.327Z,1.80
2018-11-13T15:05:51.715Z,1.70
2018-11-13T15:08:19.073Z,1.70
2018-11-13T15:10:50.539Z,1.50
2018-11-13T15:13:21.435Z,1.80
2018-11-13T15:15:48.880Z,1.77
2018-11-13T15:18:16.235Z,1.90
2018-11-13T15:20:45.398Z,1.70
2018-11-13T15:23:13.087Z,1.20
2018-11-13T15:25:40.551Z,2.00
2018-11-13T15:28:08.526Z,1.63
2018-11-13T15:30:37.334Z,1.80
2018-11-13T15:33:13.006Z,1.90
2018-11-13T15:35:40.331Z,1.75
2018-11-13T15:38:07.947Z,1.70
2018-11-13T15:40:35.572Z,1.52
2018-11-13T15:43:02.929Z,1.70
2018-11-13T15:45:30.311Z,1.70
2018-11-13T15:47:59.815Z,1.77
2018-11-13T15:50:29.263Z,1.65
2018-11-13T15:52:56.839Z,1.97
2018-11-13T15:55:24.278Z,1.98
2018-11-13T15:57:51.824Z,2.10
2018-11-13T16:00:21.723Z,1.93
2018-11-13T16:02:49.279Z,2.08
2018-11-13T16:05:21.451Z,2.07
2018-11-13T16:07:49.755Z,2.20
2018-11-13T16:10:17.415Z,2.50
2018-11-13T16:12:45.623Z,2.20
2018-11-13T16:15:13.323Z,2.00
2018-11-13T16:17:40.963Z,2.62
2018-11-13T16:20:08.939Z,2.00
2018-11-13T16:22:36.859Z,2.20
2018-11-13T16:25:05.498Z,2.40
2018-11-13T16:27:33.299Z,2.13
2018-11-13T16:30:01.288Z,2.52
2018-11-13T16:32:30.082Z,2.75
2018-11-13T16:34:57.856Z,2.75
2018-11-13T16:37:25.602Z,2.60
2018-11-13T16:39:53.243Z,2.25
2018-11-13T16:42:21.200Z,2.40
2018-11-13T16:44:49.791Z,2.35
2018-11-13T16:47:17.378Z,2.80
2018-11-13T16:49:44.971Z,2.60
2018-11-13T16:52:12.548Z,2.83
2018-11-13T16:54:49.612Z,9.50
2018-11-13T16:57:17.778Z,3.00
2018-11-13T16:59:45.660Z,2.42
2018-11-13T17:02:13.155Z,2.77
2018-11-13T17:04:40.610Z,2.70
2018-11-13T17:07:08.146Z,3.25
2018-11-13T17:09:35.530Z,3.50
2018-11-13T17:12:05.090Z,4.50
2018-11-13T17:14:33.742Z,4.30
2018-11-13T17:17:01.121Z,3.85
2018-11-13T17:19:28.596Z,3.33
2018-11-13T17:21:56.167Z,3.27
2018-11-13T17:24:23.543Z,3.42
2018-11-13T17:26:50.923Z,3.75
2018-11-13T17:29:18.321Z,2.95
2018-11-13T17:31:45.749Z,2.90
2018-11-13T17:34:13.163Z,2.50
2018-11-13T17:36:41.131Z,2.72
2018-11-13T17:39:10.438Z,2.98
2018-11-13T17:41:37.843Z,2.70
2018-11-13T17:44:05.454Z,2.95
2018-11-13T17:46:32.902Z,3.02
2018-11-13T17:49:00.500Z,3.00
2018-11-13T17:51:28.131Z,2.70
2018-11-13T17:53:55.752Z,3.37
2018-11-13T17:56:23.411Z,3.00
2018-11-13T17:58:51.080Z,3.02
2018-11-13T18:01:24.611Z,3.80
2018-11-13T18:03:52.048Z,3.08
2018-11-13T18:06:19.467Z,3.20
2018-11-13T18:08:46.837Z,2.50
2018-11-13T18:11:14.235Z,3.22
2018-11-13T18:13:44.251Z,3.15
2018-11-13T18:16:11.651Z,3.02
2018-11-13T18:18:39.043Z,4.35
2018-11-13T18:21:06.464Z,4.87
2018-11-13T18:23:33.933Z,3.67
2018-11-13T18:26:01.280Z,3.75
2018-11-13T18:28:28.945Z,2.90
2018-11-13T18:30:56.168Z,3.70
2018-11-13T18:33:23.655Z,3.42
2018-11-13T18:35:52.167Z,2.90
2018-11-13T18:38:19.591Z,3.00
2018-11-13T18:40:47.006Z,2.65
2018-11-13T18:43:14.411Z,3.77
2018-11-13T18:45:42.165Z,3.08
2018-11-13T18:48:09.829Z,3.25
2018-11-13T18:50:39.677Z,3.40
2018-11-13T18:53:07.389Z,3.30
2018-11-13T18:55:35.126Z,3.10
2018-11-13T18:58:02.800Z,3.47
2018-11-13T19:00:31.612Z,2.95
2018-11-13T19:03:00.209Z,3.65
2018-11-13T19:05:28.015Z,3.77
2018-11-13T19:07:56.032Z,3.27
2018-11-13T19:10:47.296Z,3.80
2018-11-13T19:13:19.367Z,3.35
2018-11-13T19:15:56.622Z,3.37
2018-11-13T19:18:24.127Z,3.60
2018-11-13T19:20:51.536Z,3.30
2018-11-13T19:23:19.587Z,3.87
2018-11-13T19:25:47.071Z,3.10
2018-11-13T19:28:16.458Z,3.40
2018-11-13T19:30:43.904Z,3.67
2018-11-13T19:33:11.283Z,3.47
2018-11-13T19:35:38.927Z,3.00
2018-11-13T19:38:06.231Z,4.12
2018-11-13T19:40:38.218Z,4.33
2018-11-13T19:43:07.047Z,3.55
2018-11-13T19:45:34.420Z,4.25
2018-11-13T19:48:01.860Z,4.22
2018-11-13T19:50:31.563Z,4.25
2018-11-13T19:53:02.480Z,4.42
2018-11-13T19:55:30.461Z,4.50
2018-11-13T19:57:57.870Z,4.42
2018-11-13T20:00:30.302Z,4.25
2018-11-13T20:03:06.215Z,3.17
2018-11-13T20:05:33.676Z,3.85
2018-11-13T20:08:01.182Z,3.90
2018-11-13T20:10:29.848Z,3.85
2018-11-13T20:12:58.610Z,3.40
2018-11-13T20:15:27.995Z,4.20
2018-11-13T20:17:55.498Z,3.72
2018-11-13T20:20:24.161Z,4.00
2018-11-13T20:22:52.219Z,4.45
2018-11-13T20:25:22.999Z,4.90
2018-11-13T20:27:50.446Z,4.20
2018-11-13T20:30:20.156Z,3.77
2018-11-13T20:32:47.647Z,3.80
2018-11-13T20:35:15.043Z,3.37
2018-11-13T20:37:43.937Z,3.83
2018-11-13T20:40:13.163Z,4.40
2018-11-13T20:42:41.020Z,4.78
2018-11-13T20:45:09.225Z,3.67
2018-11-13T20:47:36.792Z,4.17
2018-11-13T20:50:05.663Z,4.55
2018-11-13T20:52:33.160Z,4.10
2018-11-13T20:55:00.997Z,3.52
2018-11-13T20:57:28.904Z,3.50
2018-11-13T20:59:56.700Z,4.17
2018-11-13T21:02:24.199Z,3.58
2018-11-13T21:04:51.548Z,4.08
2018-11-13T21:07:18.941Z,4.00
2018-11-13T21:09:46.326Z,4.17
2018-11-13T21:12:13.687Z,3.90
2018-11-13T21:14:41.174Z,3.58
2018-11-13T21:17:08.693Z,4.37
2018-11-13T21:19:39.875Z,3.83
2018-11-13T21:22:07.251Z,3.65
2018-11-13T21:24:34.717Z,3.55
2018-11-13T21:27:04.949Z,3.72
2018-11-13T21:29:32.507Z,3.20
2018-11-13T21:32:00.071Z,4.15
2018-11-13T21:34:27.827Z,5.80
2018-11-13T21:36:55.283Z,5.12
2018-11-13T21:39:22.639Z,3.95
2018-11-13T21:41:50.365Z,3.22
2018-11-13T21:44:17.787Z,3.45
2018-11-13T21:46:45.170Z,3.75
2018-11-13T21:49:12.542Z,4.67
2018-11-13T21:51:39.927Z,6.83
2018-11-13T21:54:07.287Z,3.55
2018-11-13T21:56:34.614Z,3.92
2018-11-13T21:59:01.927Z,3.45
2018-11-13T22:01:29.299Z,3.50
2018-11-13T22:03:56.616Z,3.22
2018-11-13T22:06:23.894Z,3.50
2018-11-13T22:08:51.267Z,3.50
2018-11-13T22:11:18.698Z,3.67
2018-11-13T22:13:46.172Z,3.25
2018-11-13T22:16:13.802Z,3.72
2018-11-13T22:18:40.739Z,3.37
2018-11-13T22:21:08.096Z,3.10
2018-11-13T22:23:35.378Z,3.20
2018-11-13T22:26:02.619Z,3.45
2018-11-13T22:28:31.538Z,4.70
2018-11-13T22:30:58.895Z,3.30
2018-11-13T22:33:26.186Z,4.20
2018-11-13T22:35:58.561Z,3.37
2018-11-13T22:38:25.848Z,3.60
2018-11-13T22:40:53.181Z,3.08
2018-11-13T22:43:22.034Z,3.60
2018-11-13T22:45:49.324Z,3.60
2018-11-13T22:48:16.612Z,4.03
2018-11-13T22:50:43.958Z,3.72
2018-11-13T22:53:11.184Z,4.25
2018-11-13T22:55:38.450Z,3.35
2018-11-13T22:58:05.726Z,3.42
2018-11-13T23:00:39.043Z,3.45
2018-11-13T23:03:08.032Z,3.42
2018-11-13T23:05:35.534Z,3.75
2018-11-13T23:08:03.051Z,3.58
2018-11-13T23:10:30.550Z,3.45
2018-11-13T23:13:00.092Z,3.92
2018-11-13T23:15:27.827Z,3.47
2018-11-13T23:17:58.343Z,4.00
2018-11-13T23:20:27.983Z,3.90
2018-11-13T23:22:55.514Z,4.10
2018-11-13T23:25:22.978Z,3.25
2018-11-13T23:27:51.013Z,3.58
2018-11-13T23:30:19.836Z,4.42
2018-11-13T23:32:47.497Z,3.65
2018-11-13T23:35:15.619Z,3.75
2018-11-13T23:37:44.208Z,3.55
2018-11-13T23:40:13.272Z,3.80
2018-11-13T23:42:41.139Z,3.95
2018-11-13T23:45:09.022Z,3.58
2018-11-13T23:47:36.345Z,4.25
2018-11-13T23:50:03.739Z,4.40
2018-11-13T23:52:31.651Z,4.58
2018-11-13T23:54:59.091Z,3.85
2018-11-13T23:57:26.686Z,4.30
2018-11-13T23:59:54.470Z,4.08
